Time;durP1;ratioP1;P1;durP2;ratioP2;P2;SDS_P1;SDS_P2;PMS_P1;PMS_P2;Temp;Humidity;BMP_temperature;BMP_pressure;BME280_temperature;BME280_humidity;BME280_pressure;Samples;Min_cycle;Max_cycle;Signal;HPM_P1;HPM_P2
2023/07/14 00:01:47;;;;;;;1.77;1.40;;;26.20;50.20;;;;;;5037390;28;20176;-91
2023/07/14 00:04:20;;;;;;;1.50;1.40;;;26.20;50.20;;;;;;5047382;28;20180;-91
2023/07/14 00:06:46;;;;;;;1.87;1.40;;;26.20;50.20;;;;;;5041778;28;20233;-90
2023/07/14 00:09:22;;;;;;;1.93;1.50;;;26.20;50.20;;;;;;5047963;28;20584;-90
2023/07/14 00:11:48;;;;;;;2.47;1.43;;;26.10;50.10;;;;;;5048783;28;20203;-90
2023/07/14 00:14:14;;;;;;;1.50;1.40;;;26.10;50.10;;;;;;5045498;28;20168;-91
2023/07/14 00:16:40;;;;;;;2.33;1.30;;;26.10;50.10;;;;;;5039215;28;20207;-91
2023/07/14 00:19:26;;;;;;;1.67;1.50;;;26.10;50.10;;;;;;5048992;28;20431;-90
2023/07/14 00:21:51;;;;;;;1.60;1.50;;;26.10;50.10;;;;;;5040930;28;20211;-90
2023/07/14 00:24:20;;;;;;;1.90;1.50;;;26.10;50.10;;;;;;5042578;28;20222;-91
2023/07/14 00:26:50;;;;;;;2.10;1.50;;;26.10;50.10;;;;;;5030502;28;20192;-90
2023/07/14 00:29:36;;;;;;;2.97;1.63;;;26.10;50.10;;;;;;5048023;28;20566;-91
2023/07/14 00:32:08;;;;;;;1.60;1.40;;;26.00;50.10;;;;;;5031872;28;20503;-90
2023/07/14 00:34:34;;;;;;;2.07;1.40;;;26.10;50.20;;;;;;5037281;28;20184;-90
2023/07/14 00:37:00;;;;;;;1.57;1.37;;;26.10;50.20;;;;;;5037453;28;20179;-90
2023/07/14 00:39:26;;;;;;;1.60;1.50;;;26.00;50.10;;;;;;5057688;28;20171;-90
2023/07/14 00:41:53;;;;;;;2.00;1.60;;;26.00;50.10;;;;;;5043879;28;20176;-90
2023/07/14 00:44:18;;;;;;;1.50;1.37;;;26.00;50.20;;;;;;5046893;28;20577;-90
2023/07/14 00:46:45;;;;;;;2.93;1.60;;;26.00;50.20;;;;;;5040061;28;20245;-90
2023/07/14 00:49:28;;;;;;;1.80;1.40;;;25.90;50.10;;;;;;5038228;28;20180;-90
2023/07/14 00:51:57;;;;;;;2.33;1.40;;;25.90;50.10;;;;;;5038714;28;20262;-90
2023/07/14 00:54:28;;;;;;;3.70;1.43;;;25.90;50.10;;;;;;5026037;28;20230;-90
2023/07/14 00:56:55;;;;;;;2.20;1.50;;;25.90;50.10;;;;;;5055038;28;20172;-90
2023/07/14 00:59:29;;;;;;;1.80;1.40;;;25.90;50.10;;;;;;5037745;28;20184;-90
2023/07/14 01:02:10;;;;;;;1.40;1.30;;;25.90;50.10;;;;;;5061063;28;20202;-90
2023/07/14 01:04:39;;;;;;;1.93;1.60;;;25.90;50.10;;;;;;5047323;28;20186;-90
2023/07/14 01:07:06;;;;;;;2.90;1.60;;;25.90;50.10;;;;;;5065174;28;20550;-90
2023/07/14 01:09:33;;;;;;;1.93;1.40;;;25.90;50.10;;;;;;5057314;28;20176;-90
2023/07/14 01:12:01;;;;;;;2.00;1.37;;;25.90;50.10;;;;;;5039054;28;20206;-90
2023/07/14 01:14:34;;;;;;;1.47;1.37;;;25.80;50.10;;;;;;5027800;28;20246;-90
2023/07/14 01:17:01;;;;;;;1.40;1.30;;;25.80;50.10;;;;;;5038414;28;20514;-91
2023/07/14 01:19:33;;;;;;;1.77;1.47;;;25.80;50.10;;;;;;5031448;28;20177;-91
2023/07/14 01:22:31;;;;;;;1.37;1.27;;;25.80;50.10;;;;;;5021288;28;20408;-91
2023/07/14 01:25:27;;;;;;;1.60;1.40;;;25.80;50.10;;;;;;4996900;28;20196;-91
2023/07/14 01:27:52;;;;;;;2.03;1.40;;;25.80;50.00;;;;;;5055388;28;20330;-91
2023/07/14 01:30:19;;;;;;;1.33;1.20;;;25.80;50.10;;;;;;5051820;28;20188;-91
2023/07/14 01:32:48;;;;;;;1.77;1.47;;;25.80;50.10;;;;;;5036167;28;20212;-91
2023/07/14 01:35:16;;;;;;;1.73;1.50;;;25.70;50.00;;;;;;5027937;28;20361;-90
2023/07/14 01:37:43;;;;;;;2.30;1.30;;;25.70;50.00;;;;;;5047135;28;20216;-90
2023/07/14 01:40:14;;;;;;;1.43;1.10;;;25.70;50.00;;;;;;5039849;28;20403;-90
2023/07/14 01:42:48;;;;;;;1.40;1.20;;;25.70;50.10;;;;;;5054113;28;20575;-90
2023/07/14 01:45:17;;;;;;;1.67;1.27;;;25.70;50.00;;;;;;5035744;28;20278;-90
2023/07/14 01:47:47;;;;;;;1.47;1.37;;;25.70;50.00;;;;;;5036793;28;20275;-90
2023/07/14 01:50:25;;;;;;;2.07;1.50;;;25.70;50.00;;;;;;5055828;28;20184;-90
2023/07/14 01:52:56;;;;;;;2.47;1.40;;;25.70;50.00;;;;;;5035955;28;20207;-90
2023/07/14 01:55:31;;;;;;;1.60;1.27;;;25.70;50.00;;;;;;5056706;28;20173;-90
2023/07/14 01:57:58;;;;;;;1.50;1.40;;;25.70;50.00;;;;;;5044772;28;20172;-90
2023/07/14 02:00:25;;;;;;;2.17;1.20;;;25.70;50.00;;;;;;5036772;28;20168;-90
2023/07/14 02:02:52;;;;;;;1.50;1.40;;;25.60;50.00;;;;;;5046399;28;20172;-90
2023/07/14 02:05:26;;;;;;;1.90;1.37;;;25.60;50.00;;;;;;5038190;28;20217;-90
2023/07/14 02:07:52;;;;;;;1.50;1.40;;;25.60;50.00;;;;;;5032992;28;20256;-90
2023/07/14 02:10:19;;;;;;;1.67;1.30;;;25.60;50.00;;;;;;5039552;28;20266;-90
2023/07/14 02:12:48;;;;;;;1.53;1.30;;;25.60;50.00;;;;;;5056192;28;20215;-90
2023/07/14 02:15:34;;;;;;;1.70;1.30;;;25.60;50.00;;;;;;5030715;28;20304;-90
2023/07/14 02:18:01;;;;;;;1.90;1.27;;;25.60;50.00;;;;;;5049885;28;20222;-90
2023/07/14 02:20:34;;;;;;;1.50;1.40;;;25.60;50.00;;;;;;5032443;28;20239;-90
2023/07/14 02:23:02;;;;;;;1.57;1.30;;;25.60;50.00;;;;;;5042607;28;20218;-90
2023/07/14 02:25:33;;;;;;;1.93;1.50;;;25.60;50.00;;;;;;5031021;28;20537;-90
2023/07/14 02:27:59;;;;;;;1.43;1.30;;;25.50;49.90;;;;;;5037333;28;20211;-90
2023/07/14 02:30:27;;;;;;;2.00;1.37;;;25.50;49.90;;;;;;5038787;28;20207;-90
2023/07/14 02:32:59;;;;;;;2.23;1.70;;;25.50;49.90;;;;;;5034443;28;20593;-90
2023/07/14 02:35:33;;;;;;;2.07;1.47;;;25.50;50.00;;;;;;5035826;28;20187;-90
2023/07/14 02:38:03;;;;;;;1.50;1.40;;;25.50;50.00;;;;;;5053781;28;20543;-90
2023/07/14 02:40:49;;;;;;;1.53;1.37;;;25.50;49.90;;;;;;5058185;28;20179;-90
2023/07/14 02:43:17;;;;;;;1.57;1.40;;;25.50;49.90;;;;;;5028193;28;20191;-91
2023/07/14 02:45:51;;;;;;;1.43;1.33;;;25.50;49.90;;;;;;5047958;28;20185;-90
2023/07/14 02:48:21;;;;;;;1.53;1.37;;;25.40;49.90;;;;;;5040917;28;20492;-90
2023/07/14 02:50:46;;;;;;;1.73;1.40;;;25.40;49.90;;;;;;5065312;28;20549;-91
2023/07/14 02:53:12;;;;;;;1.47;1.33;;;25.40;50.00;;;;;;5035612;28;20193;-90
2023/07/14 02:55:39;;;;;;;1.30;1.20;;;25.40;49.90;;;;;;5054998;28;20466;-90
2023/07/14 02:58:04;;;;;;;2.70;1.60;;;25.40;49.90;;;;;;5049280;28;20199;-90
2023/07/14 03:00:30;;;;;;;2.07;1.20;;;25.40;50.00;;;;;;5051495;28;20180;-90
2023/07/14 03:02:56;;;;;;;1.30;1.20;;;25.30;49.90;;;;;;5050522;28;20184;-90
2023/07/14 03:05:22;;;;;;;2.27;1.47;;;25.40;50.00;;;;;;5052306;28;20180;-89
2023/07/14 03:07:48;;;;;;;2.00;1.40;;;25.30;49.90;;;;;;5038068;28;20207;-90
2023/07/14 03:10:14;;;;;;;1.40;1.20;;;25.30;50.00;;;;;;5050202;28;20168;-90
2023/07/14 03:12:40;;;;;;;1.40;1.30;;;25.30;49.90;;;;;;5040158;28;20258;-90
2023/07/14 03:15:06;;;;;;;1.70;1.37;;;25.30;49.90;;;;;;5050785;28;20248;-90
2023/07/14 03:17:32;;;;;;;1.40;1.30;;;25.30;49.90;;;;;;5058641;28;20184;-90
2023/07/14 03:19:57;;;;;;;1.37;1.23;;;25.40;49.90;;;;;;5059281;28;20175;-90
2023/07/14 03:22:24;;;;;;;1.43;1.33;;;25.30;49.90;;;;;;5039981;28;20208;-90
2023/07/14 03:24:50;;;;;;;1.50;1.37;;;25.30;49.90;;;;;;5039624;28;20180;-90
2023/07/14 03:27:16;;;;;;;1.97;1.50;;;25.30;50.00;;;;;;5056338;28;20168;-90
2023/07/14 03:29:41;;;;;;;1.87;1.30;;;25.20;49.90;;;;;;5046211;28;20184;-90
2023/07/14 03:32:11;;;;;;;1.43;1.33;;;25.30;49.90;;;;;;5037982;28;20500;-90
2023/07/14 03:34:37;;;;;;;1.40;1.30;;;25.30;49.90;;;;;;5038023;28;20220;-90
2023/07/14 03:37:03;;;;;;;1.70;1.30;;;25.20;49.90;;;;;;5044601;28;20172;-90
2023/07/14 03:39:30;;;;;;;1.70;1.50;;;25.20;49.90;;;;;;5028718;28;20246;-90
2023/07/14 03:41:57;;;;;;;1.43;1.33;;;25.20;49.90;;;;;;5045005;28;20230;-90
2023/07/14 03:44:24;;;;;;;1.40;1.30;;;25.20;50.30;;;;;;5054643;28;20176;-90
2023/07/14 03:46:50;;;;;;;1.67;1.30;;;25.20;49.90;;;;;;5033973;28;20642;-91
2023/07/14 03:49:16;;;;;;;1.53;1.40;;;25.20;49.90;;;;;;5054970;28;20499;-90
2023/07/14 03:51:42;;;;;;;1.63;1.27;;;25.20;49.90;;;;;;5055328;28;20200;-90
2023/07/14 03:54:09;;;;;;;1.27;1.10;;;25.20;49.90;;;;;;5028742;28;20168;-90
2023/07/14 03:56:35;;;;;;;1.40;1.30;;;25.20;49.90;;;;;;5045075;28;20242;-90
2023/07/14 03:59:01;;;;;;;1.40;1.30;;;25.10;49.90;;;;;;5059689;28;20183;-90
2023/07/14 04:01:27;;;;;;;1.90;1.40;;;25.10;49.90;;;;;;5054031;28;20694;-90
2023/07/14 04:03:54;;;;;;;1.37;1.27;;;25.10;49.90;;;;;;5037438;28;20242;-90
2023/07/14 04:06:20;;;;;;;1.30;1.20;;;25.10;49.90;;;;;;5044518;28;20569;-90
2023/07/14 04:08:46;;;;;;;1.53;1.43;;;25.10;49.90;;;;;;5038308;28;20183;-90
2023/07/14 04:11:13;;;;;;;1.53;1.30;;;25.10;49.90;;;;;;5036859;28;20231;-90
2023/07/14 04:13:39;;;;;;;1.40;1.30;;;25.20;49.90;;;;;;5053561;28;20212;-90
2023/07/14 04:16:08;;;;;;;1.73;1.20;;;25.20;49.90;;;;;;5035141;28;20216;-90
2023/07/14 04:18:35;;;;;;;1.93;1.40;;;25.20;49.90;;;;;;5050389;28;20182;-90
2023/07/14 04:21:04;;;;;;;1.53;1.27;;;25.10;49.90;;;;;;5037111;28;20184;-90
2023/07/14 04:23:32;;;;;;;1.40;1.30;;;25.20;49.90;;;;;;5047525;28;20183;-91
2023/07/14 04:25:58;;;;;;;1.33;1.17;;;25.20;49.80;;;;;;5038545;28;20283;-90
2023/07/14 04:28:24;;;;;;;1.47;1.30;;;25.20;49.80;;;;;;5050910;28;20338;-90
2023/07/14 04:30:54;;;;;;;1.30;1.20;;;25.20;49.80;;;;;;5036957;28;20467;-90
2023/07/14 04:33:21;;;;;;;1.20;1.10;;;25.20;49.80;;;;;;5041070;28;20175;-90
2023/07/14 04:35:48;;;;;;;2.07;1.33;;;25.20;49.80;;;;;;5046802;28;20199;-90
2023/07/14 04:38:14;;;;;;;1.73;1.33;;;25.20;49.80;;;;;;5053503;28;20258;-90
2023/07/14 04:40:41;;;;;;;1.30;1.20;;;25.20;49.80;;;;;;5053870;28;20491;-90
2023/07/14 04:43:06;;;;;;;1.70;1.40;;;25.20;49.70;;;;;;5048608;28;20183;-90
2023/07/14 04:45:40;;;;;;;1.67;1.40;;;25.20;49.70;;;;;;5036889;28;20173;-90
2023/07/14 04:48:14;;;;;;;2.20;1.30;;;25.30;49.80;;;;;;5040700;28;20175;-90
2023/07/14 04:50:40;;;;;;;1.77;1.20;;;25.20;49.70;;;;;;5024378;28;20554;-90
2023/07/14 04:53:06;;;;;;;2.37;1.40;;;25.20;49.70;;;;;;5032252;28;20298;-90
2023/07/14 04:55:36;;;;;;;1.60;1.23;;;25.20;49.80;;;;;;5038356;28;20450;-90
2023/07/14 04:58:04;;;;;;;1.20;1.10;;;25.20;49.80;;;;;;5050337;28;20168;-90
2023/07/14 05:00:41;;;;;;;1.27;1.17;;;25.10;49.80;;;;;;5041525;28;20184;-90
2023/07/14 05:03:07;;;;;;;1.40;1.30;;;25.20;49.80;;;;;;5033870;28;20550;-90
2023/07/14 05:05:33;;;;;;;1.30;1.20;;;25.20;49.80;;;;;;5032591;28;20208;-90
2023/07/14 05:08:00;;;;;;;2.20;1.20;;;25.20;49.80;;;;;;5040227;28;20238;-90
2023/07/14 05:10:28;;;;;;;1.53;1.30;;;25.20;49.80;;;;;;5033639;28;20180;-90
2023/07/14 05:12:56;;;;;;;1.60;1.30;;;25.20;49.80;;;;;;5029367;28;20285;-90
2023/07/14 05:15:24;;;;;;;1.57;1.30;;;25.20;49.80;;;;;;5023136;28;20415;-90
2023/07/14 05:17:50;;;;;;;1.40;1.20;;;25.20;49.80;;;;;;5030915;28;20180;-90
2023/07/14 05:20:18;;;;;;;1.40;1.30;;;25.20;49.80;;;;;;5047756;28;20428;-90
2023/07/14 05:22:46;;;;;;;1.80;1.33;;;25.20;49.60;;;;;;5048911;28;20233;-90
2023/07/14 05:25:13;;;;;;;1.27;1.17;;;25.30;49.70;;;;;;5029856;28;20185;-90
2023/07/14 05:27:39;;;;;;;1.30;1.20;;;25.20;49.60;;;;;;5039052;28;20187;-90
2023/07/14 05:30:11;;;;;;;1.77;1.40;;;25.20;49.60;;;;;;5038614;28;20173;-90
2023/07/14 05:32:36;;;;;;;1.40;1.30;;;25.30;49.70;;;;;;5029085;28;20367;-90
2023/07/14 05:35:03;;;;;;;1.60;1.30;;;25.20;49.60;;;;;;5047668;28;20192;-90
2023/07/14 05:37:28;;;;;;;1.20;1.10;;;25.30;49.70;;;;;;5029324;28;20176;-90
2023/07/14 05:39:54;;;;;;;1.20;1.10;;;25.30;49.60;;;;;;5022068;28;20183;-90
2023/07/14 05:42:20;;;;;;;1.30;1.20;;;25.30;49.60;;;;;;5047314;28;20468;-90
2023/07/14 05:44:45;;;;;;;1.97;1.20;;;25.30;49.60;;;;;;5038582;28;20203;-90
2023/07/14 05:47:12;;;;;;;1.30;1.20;;;25.30;49.60;;;;;;5027088;28;20224;-91
2023/07/14 05:49:38;;;;;;;1.30;1.20;;;25.20;49.60;;;;;;5037277;28;20177;-90
2023/07/14 05:52:04;;;;;;;1.70;1.37;;;25.30;49.60;;;;;;5038793;28;20210;-90
2023/07/14 05:54:30;;;;;;;1.67;1.30;;;25.30;49.60;;;;;;5019650;28;20303;-91
2023/07/14 05:56:56;;;;;;;1.30;1.20;;;25.30;49.50;;;;;;5027857;28;20176;-90
2023/07/14 05:59:22;;;;;;;1.70;1.40;;;25.40;49.60;;;;;;5038113;28;20206;-90
2023/07/14 06:01:48;;;;;;;1.23;1.13;;;25.40;49.50;;;;;;5029589;28;20195;-91
2023/07/14 06:04:15;;;;;;;1.73;1.30;;;25.40;49.40;;;;;;5037063;28;20250;-90
2023/07/14 06:06:41;;;;;;;2.00;1.13;;;25.50;49.40;;;;;;5026601;28;20474;-91
2023/07/14 06:09:09;;;;;;;1.67;1.30;;;25.50;49.40;;;;;;5036544;28;20180;-90
2023/07/14 06:11:35;;;;;;;1.23;1.10;;;25.40;49.40;;;;;;5028658;28;20304;-90
2023/07/14 06:14:01;;;;;;;1.50;1.40;;;25.40;49.40;;;;;;5029653;28;20620;-90
2023/07/14 06:16:27;;;;;;;1.50;1.23;;;25.40;49.40;;;;;;5035687;28;20577;-90
2023/07/14 06:18:52;;;;;;;1.57;1.20;;;25.40;49.50;;;;;;5045417;28;20267;-90
2023/07/14 06:21:19;;;;;;;1.40;1.30;;;25.40;49.50;;;;;;5027843;28;20330;-90
2023/07/14 06:23:44;;;;;;;1.47;1.20;;;25.40;49.50;;;;;;5037117;28;20455;-90
2023/07/14 06:26:11;;;;;;;2.73;1.30;;;25.50;49.40;;;;;;5027910;28;20185;-90
2023/07/14 06:28:37;;;;;;;1.80;1.20;;;25.50;49.40;;;;;;5038399;28;20191;-90
2023/07/14 06:31:06;;;;;;;1.90;1.23;;;25.60;49.40;;;;;;5029134;28;20181;-90
2023/07/14 06:33:33;;;;;;;1.23;1.13;;;25.60;49.30;;;;;;5038459;28;20566;-90
2023/07/14 06:35:59;;;;;;;1.40;1.20;;;25.70;49.30;;;;;;5028652;28;20494;-90
2023/07/14 06:38:26;;;;;;;1.40;1.30;;;25.70;49.20;;;;;;5036036;28;20176;-90
2023/07/14 06:41:00;;;;;;;2.17;1.23;;;25.80;49.10;;;;;;5027498;28;20191;-90
2023/07/14 06:43:25;;;;;;;1.87;1.30;;;25.90;49.20;;;;;;5016276;28;20220;-90
2023/07/14 06:45:51;;;;;;;1.60;1.43;;;25.90;49.10;;;;;;5042689;28;20211;-90
2023/07/14 06:48:17;;;;;;;1.90;1.10;;;26.00;49.10;;;;;;5026195;28;20184;-90
2023/07/14 06:50:45;;;;;;;1.20;1.10;;;26.00;49.00;;;;;;5025849;28;20234;-90
2023/07/14 06:53:10;;;;;;;1.60;1.23;;;26.10;49.00;;;;;;5043565;28;20538;-90
2023/07/14 06:55:38;;;;;;;1.63;1.30;;;26.10;49.00;;;;;;5035666;28;20184;-88
2023/07/14 06:58:05;;;;;;;1.53;1.20;;;26.20;48.90;;;;;;5030484;28;20204;-88
2023/07/14 07:00:31;;;;;;;1.30;1.20;;;26.30;48.90;;;;;;5031988;28;20238;-88
2023/07/14 07:02:58;;;;;;;1.50;1.30;;;26.30;48.90;;;;;;5025182;28;20275;-88
2023/07/14 07:05:23;;;;;;;1.70;1.30;;;26.30;48.80;;;;;;5043396;28;20180;-88
2023/07/14 07:07:50;;;;;;;1.30;1.20;;;26.30;48.80;;;;;;5043677;28;20199;-88
2023/07/14 07:10:16;;;;;;;1.50;1.20;;;26.30;48.80;;;;;;5024366;28;20238;-88
2023/07/14 07:12:42;;;;;;;1.57;1.20;;;26.30;48.80;;;;;;5033565;28;20212;-89
2023/07/14 07:15:08;;;;;;;1.70;1.30;;;26.40;48.90;;;;;;5020913;28;20208;-88
2023/07/14 07:17:34;;;;;;;1.40;1.10;;;26.40;48.90;;;;;;5033916;28;20461;-88
2023/07/14 07:20:00;;;;;;;1.40;1.30;;;26.50;48.90;;;;;;5034500;28;20294;-89
2023/07/14 07:22:26;;;;;;;1.37;1.27;;;26.50;48.90;;;;;;5021242;28;20184;-89
2023/07/14 07:24:52;;;;;;;1.40;1.20;;;26.60;48.90;;;;;;5031475;28;20367;-89
2023/07/14 07:27:17;;;;;;;1.53;1.20;;;26.60;48.90;;;;;;5016723;28;20632;-88
2023/07/14 07:29:43;;;;;;;2.23;1.40;;;26.70;48.90;;;;;;5026901;28;20187;-89
2023/07/14 07:32:10;;;;;;;1.53;1.30;;;26.80;48.90;;;;;;5038464;28;20203;-90
2023/07/14 07:34:36;;;;;;;2.97;1.20;;;26.80;48.90;;;;;;5029934;28;20672;-88
2023/07/14 07:37:02;;;;;;;1.50;1.20;;;26.90;48.90;;;;;;5030384;28;20187;-88
2023/07/14 07:39:28;;;;;;;1.30;1.20;;;26.90;48.90;;;;;;5029765;28;20305;-88
2023/07/14 07:41:54;;;;;;;1.90;1.30;;;27.00;49.00;;;;;;5043697;28;20283;-88
2023/07/14 07:44:20;;;;;;;1.50;1.20;;;27.00;48.90;;;;;;5036500;28;20191;-88
2023/07/14 07:46:46;;;;;;;1.50;1.25;;;27.10;48.90;;;;;;5027027;28;20272;-88
2023/07/14 07:49:12;;;;;;;1.97;1.30;;;27.10;48.80;;;;;;5048514;28;20183;-89
2023/07/14 07:51:38;;;;;;;1.50;1.40;;;27.20;48.80;;;;;;5030826;28;20200;-88
2023/07/14 07:54:04;;;;;;;1.53;1.30;;;27.20;48.90;;;;;;5039835;28;20172;-89
2023/07/14 07:56:32;;;;;;;1.30;1.10;;;27.30;48.90;;;;;;5038647;28;21000;-88
2023/07/14 07:58:57;;;;;;;1.93;1.33;;;27.30;48.90;;;;;;5029820;28;20575;-88
2023/07/14 08:01:25;;;;;;;1.45;1.25;;;27.40;48.90;;;;;;5027037;28;20291;-89
2023/07/14 08:03:51;;;;;;;3.33;1.50;;;27.40;48.80;;;;;;5038172;28;20180;-88
2023/07/14 08:06:17;;;;;;;1.67;1.40;;;27.50;48.70;;;;;;5028638;28;20258;-88
2023/07/14 08:08:44;;;;;;;2.20;1.50;;;27.50;48.70;;;;;;5038585;28;20184;-88
2023/07/14 08:11:11;;;;;;;1.65;1.35;;;27.70;48.70;;;;;;5029468;28;20185;-88
2023/07/14 08:13:38;;;;;;;1.63;1.30;;;27.70;48.70;;;;;;5048322;28;20267;-89
2023/07/14 08:16:04;;;;;;;2.97;1.33;;;27.80;48.50;;;;;;5038346;28;20544;-89
2023/07/14 08:18:30;;;;;;;1.75;1.40;;;27.80;48.50;;;;;;5048221;28;20188;-89
2023/07/14 08:20:58;;;;;;;2.50;1.40;;;27.90;48.40;;;;;;5039037;28;20176;-89
2023/07/14 08:23:24;;;;;;;2.55;1.30;;;28.00;48.40;;;;;;5030273;28;20177;-89
2023/07/14 08:25:55;;;;;;;2.75;1.50;;;28.00;48.30;;;;;;5036679;28;20195;-89
2023/07/14 08:28:22;;;;;;;1.77;1.50;;;28.10;48.30;;;;;;5025881;28;20180;-89
2023/07/14 08:30:49;;;;;;;1.67;1.45;;;28.20;48.20;;;;;;5035488;28;20184;-89
2023/07/14 08:33:16;;;;;;;2.13;1.30;;;28.20;48.20;;;;;;5024888;28;20501;-89
2023/07/14 08:35:42;;;;;;;2.30;1.60;;;28.20;48.30;;;;;;5033898;28;20495;-89
2023/07/14 08:38:08;;;;;;;1.88;1.50;;;28.20;48.20;;;;;;5035869;28;20176;-90
2023/07/14 08:40:44;;;;;;;3.22;1.50;;;28.30;48.10;;;;;;5029157;28;20176;-89
2023/07/14 08:43:15;;;;;;;2.15;1.50;;;28.40;48.10;;;;;;5032756;28;20251;-89
2023/07/14 08:45:54;;;;;;;1.98;1.50;;;28.50;48.10;;;;;;5032246;28;20317;-89
2023/07/14 08:48:31;;;;;;;1.77;1.58;;;28.50;48.10;;;;;;5041219;28;20184;-89
2023/07/14 08:51:04;;;;;;;2.63;1.40;;;28.50;48.40;;;;;;5014303;28;20261;-89
2023/07/14 08:53:33;;;;;;;1.90;1.40;;;28.50;48.10;;;;;;5034380;28;20564;-88
2023/07/14 08:56:03;;;;;;;1.73;1.40;;;28.50;48.10;;;;;;5023809;28;20180;-88
2023/07/14 08:58:33;;;;;;;2.63;1.42;;;28.50;48.10;;;;;;5044317;28;20432;-89
2023/07/14 09:01:28;;;;;;;2.08;1.40;;;28.50;48.10;;;;;;5026206;28;20212;-91
2023/07/14 09:03:58;;;;;;;4.60;1.48;;;28.50;48.10;;;;;;5025016;28;20184;-91
2023/07/14 09:06:36;;;;;;;1.90;1.40;;;28.60;48.10;;;;;;5038026;28;20181;-90
2023/07/14 09:09:03;;;;;;;3.47;1.35;;;28.60;48.20;;;;;;5023719;28;20559;-89
2023/07/14 09:11:53;;;;;;;1.88;1.42;;;28.60;48.20;;;;;;5034306;28;20299;-89
2023/07/14 09:14:49;;;;;;;3.50;1.40;;;28.60;48.10;;;;;;5035678;28;20316;-89
2023/07/14 09:17:49;;;;;;;4.55;1.80;;;28.70;48.10;;;;;;5015413;28;20177;-90
2023/07/14 09:20:33;;;;;;;2.20;1.50;;;28.70;48.10;;;;;;5039279;28;20184;-89
2023/07/14 09:23:27;;;;;;;2.35;1.75;;;28.80;48.00;;;;;;5038732;28;20185;-89
2023/07/14 09:26:13;;;;;;;2.78;1.65;;;28.80;47.90;;;;;;5030580;28;20177;-89
2023/07/14 09:28:46;;;;;;;2.67;1.60;;;28.90;47.90;;;;;;5016860;28;20282;-90
2023/07/14 09:31:39;;;;;;;1.50;1.40;;;28.90;47.90;;;;;;5032109;28;20181;-89
2023/07/14 09:34:29;;;;;;;2.63;1.73;;;28.90;47.90;;;;;;5029831;28;20600;-89
2023/07/14 09:36:56;;;;;;;1.92;1.42;;;28.90;47.90;;;;;;5032789;28;20243;-90
2023/07/14 09:39:36;;;;;;;2.08;1.70;;;28.90;48.00;;;;;;5023290;28;20188;-89
2023/07/14 09:42:06;;;;;;;2.42;1.67;;;28.90;48.00;;;;;;5031038;28;20294;-90
2023/07/14 09:44:33;;;;;;;2.38;1.58;;;28.90;48.00;;;;;;5021920;28;20180;-89
2023/07/14 09:47:02;;;;;;;2.78;1.70;;;29.00;47.90;;;;;;5020660;28;20260;-88
2023/07/14 09:49:38;;;;;;;3.78;1.80;;;29.00;47.90;;;;;;5012331;28;20397;-89
2023/07/14 09:52:18;;;;;;;4.78;1.80;;;29.00;47.80;;;;;;5032710;28;20242;-89
2023/07/14 09:54:52;;;;;;;1.90;1.67;;;29.10;47.90;;;;;;5020395;28;20208;-88
2023/07/14 09:57:21;;;;;;;3.15;1.77;;;29.10;47.90;;;;;;5030640;28;20373;-89
2023/07/14 09:59:56;;;;;;;2.45;1.60;;;29.10;47.90;;;;;;5022936;28;20184;-88
2023/07/14 10:02:28;;;;;;;2.28;1.52;;;29.10;47.90;;;;;;5028182;28;20179;-89
2023/07/14 10:04:59;;;;;;;2.83;1.80;;;29.10;47.90;;;;;;5038489;28;20580;-89
2023/07/14 10:07:25;;;;;;;4.15;1.77;;;29.10;48.00;;;;;;5025486;28;20210;-90
2023/07/14 10:10:07;;;;;;;3.58;1.90;;;29.10;47.90;;;;;;5041501;28;20327;-88
2023/07/14 10:12:47;;;;;;;3.20;1.73;;;29.10;47.90;;;;;;5039942;28;20264;-90
2023/07/14 10:15:30;;;;;;;2.33;1.73;;;29.20;47.90;;;;;;5040555;28;20360;-88
2023/07/14 10:18:01;;;;;;;2.60;1.48;;;29.30;47.90;;;;;;5033309;28;20544;-89
2023/07/14 10:20:28;;;;;;;2.03;1.75;;;29.30;47.90;;;;;;5024414;28;20176;-88
2023/07/14 10:22:57;;;;;;;3.83;1.70;;;29.30;47.80;;;;;;5024336;28;20189;-88
2023/07/14 10:25:23;;;;;;;3.10;1.55;;;29.40;47.80;;;;;;5036329;28;20190;-89
2023/07/14 10:27:52;;;;;;;;;;;29.40;47.80;;;;;;5034897;28;20249;-88
2023/07/14 10:30:42;;;;;;;2.75;1.73;;;29.40;47.70;;;;;;5026472;28;19909;-88
2023/07/14 10:33:17;;;;;;;3.47;2.05;;;29.40;47.70;;;;;;5024984;28;20272;-88
2023/07/14 10:35:43;;;;;;;2.65;1.80;;;29.40;47.70;;;;;;5042648;28;20235;-87
2023/07/14 10:38:33;;;;;;;2.60;1.80;;;29.50;47.70;;;;;;5034080;28;20202;-89
2023/07/14 10:41:02;;;;;;;2.40;1.70;;;29.50;47.70;;;;;;5024921;28;20244;-89
2023/07/14 10:43:38;;;;;;;2.00;1.80;;;29.50;47.70;;;;;;5035711;28;20179;-90
2023/07/14 10:46:12;;;;;;;2.60;1.83;;;29.50;47.70;;;;;;5031332;28;20181;-88
2023/07/14 10:48:56;;;;;;;2.85;1.90;;;29.50;47.70;;;;;;5034242;28;20457;-88
2023/07/14 10:51:34;;;;;;;1.85;1.60;;;29.50;47.70;;;;;;5033030;28;20230;-88
2023/07/14 10:54:13;;;;;;;2.40;1.60;;;29.60;47.70;;;;;;5033025;28;20172;-88
2023/07/14 10:57:03;;;;;;;2.08;1.50;;;29.60;47.70;;;;;;5035101;28;20416;-88
2023/07/14 10:59:35;;;;;;;2.15;1.67;;;29.60;47.60;;;;;;5025303;28;20191;-89
2023/07/14 11:02:10;;;;;;;2.63;1.75;;;29.60;47.60;;;;;;5013539;28;20185;-90
2023/07/14 11:04:42;;;;;;;2.42;1.63;;;29.60;47.70;;;;;;5044614;28;20201;-89
2023/07/14 11:07:16;;;;;;;1.80;1.70;;;29.60;47.70;;;;;;5029071;28;20330;-90
2023/07/14 11:09:42;;;;;;;2.50;1.75;;;29.60;47.80;;;;;;5038511;28;20188;-88
2023/07/14 11:12:13;;;;;;;1.98;1.55;;;29.60;47.80;;;;;;5038082;28;20464;-89
2023/07/14 11:15:17;;;;;;;2.50;1.88;;;29.60;47.80;;;;;;5034014;28;20244;-89
2023/07/14 11:17:57;;;;;;;2.58;1.70;;;29.60;47.80;;;;;;5040691;28;20184;-88
2023/07/14 11:20:26;;;;;;;2.35;1.77;;;29.60;47.80;;;;;;5040430;28;20176;-89
2023/07/14 11:23:05;;;;;;;3.33;1.77;;;29.60;47.80;;;;;;5025636;28;20729;-88
2023/07/14 11:25:47;;;;;;;3.42;1.90;;;29.60;47.90;;;;;;5042831;28;20548;-89
2023/07/14 11:28:25;;;;;;;1.83;1.67;;;29.60;47.90;;;;;;5033585;28;20219;-89
2023/07/14 11:30:56;;;;;;;3.08;1.55;;;29.50;47.80;;;;;;5044016;28;20219;-89
2023/07/14 11:33:51;;;;;;;3.20;1.50;;;29.60;47.90;;;;;;5040385;28;20211;-91
2023/07/14 11:36:38;;;;;;;2.92;1.70;;;29.60;47.90;;;;;;5042131;28;20365;-88
2023/07/14 11:39:22;;;;;;;3.45;1.73;;;29.60;47.90;;;;;;5029649;28;20279;-88
2023/07/14 11:41:48;;;;;;;2.67;1.90;;;29.60;47.90;;;;;;5034211;28;20653;-88
2023/07/14 11:44:20;;;;;;;1.60;1.50;;;29.50;47.90;;;;;;5042754;28;20180;-88
2023/07/14 11:46:47;;;;;;;2.00;1.67;;;29.50;48.00;;;;;;5046759;28;20368;-89
2023/07/14 11:49:50;;;;;;;2.95;1.73;;;29.50;48.00;;;;;;5030122;28;20272;-89
2023/07/14 11:52:25;;;;;;;1.83;1.60;;;29.50;48.10;;;;;;5013382;28;20797;-89
2023/07/14 11:55:06;;;;;;;1.98;1.60;;;29.50;48.10;;;;;;5028805;28;20203;-88
2023/07/14 11:58:04;;;;;;;2.67;1.80;;;29.50;48.10;;;;;;5043410;28;20373;-88
2023/07/14 12:00:47;;;;;;;2.45;1.80;;;29.50;48.10;;;;;;5025964;28;20196;-88
2023/07/14 12:03:28;;;;;;;2.42;1.88;;;29.50;48.10;;;;;;5046895;28;20169;-88
2023/07/14 12:06:18;;;;;;;2.63;1.80;;;29.50;48.10;;;;;;5041985;28;20188;-89
2023/07/14 12:09:04;;;;;;;2.22;1.80;;;29.50;48.10;;;;;;5029748;28;20246;-88
2023/07/14 12:11:51;;;;;;;2.95;1.50;;;29.50;48.50;;;;;;5018488;28;20349;-88
2023/07/14 12:14:35;;;;;;;2.53;1.65;;;29.50;48.10;;;;;;5046565;28;20176;-88
2023/07/14 12:17:04;;;;;;;2.78;1.80;;;29.50;48.10;;;;;;5043784;28;20264;-88
2023/07/14 12:19:50;;;;;;;3.25;1.85;;;29.50;48.10;;;;;;5029066;28;20203;-88
2023/07/14 12:22:37;;;;;;;2.00;1.67;;;29.50;48.10;;;;;;5045604;28;20184;-88
2023/07/14 12:25:25;;;;;;;3.10;1.58;;;29.50;48.10;;;;;;5029072;28;20423;-88
2023/07/14 12:27:53;;;;;;;1.98;1.50;;;29.60;48.20;;;;;;5021810;28;20187;-90
2023/07/14 12:30:30;;;;;;;2.05;1.60;;;29.60;48.20;;;;;;5029052;28;20265;-89
2023/07/14 12:33:02;;;;;;;2.70;1.70;;;29.60;48.10;;;;;;5016735;28;20298;-88
2023/07/14 12:35:30;;;;;;;1.65;1.55;;;29.60;48.20;;;;;;5036545;28;20202;-88
2023/07/14 12:38:12;;;;;;;2.58;1.92;;;29.60;48.10;;;;;;5029058;28;20576;-88
2023/07/14 12:40:38;;;;;;;1.77;1.33;;;29.60;48.10;;;;;;5039265;28;20372;-87
2023/07/14 12:43:15;;;;;;;1.75;1.50;;;29.60;48.10;;;;;;5029204;28;20257;-87
2023/07/14 12:45:41;;;;;;;1.67;1.52;;;29.60;48.20;;;;;;5027601;28;20497;-89
2023/07/14 12:48:11;;;;;;;4.32;1.90;;;29.60;48.20;;;;;;5036229;28;20282;-88
2023/07/14 12:50:40;;;;;;;1.60;1.50;;;29.60;48.20;;;;;;5026516;28;20187;-88
2023/07/14 12:53:14;;;;;;;2.75;1.60;;;29.70;48.20;;;;;;5033115;28;20238;-89
2023/07/14 12:55:43;;;;;;;1.60;1.50;;;29.70;48.20;;;;;;5034496;28;20180;-87
2023/07/14 12:58:24;;;;;;;1.90;1.70;;;29.70;48.20;;;;;;5022965;28;20284;-87
2023/07/14 13:00:54;;;;;;;2.53;1.58;;;29.70;48.20;;;;;;5035782;28;20561;-86
2023/07/14 13:03:21;;;;;;;2.33;1.60;;;29.70;48.20;;;;;;5033950;28;20187;-88
2023/07/14 13:05:48;;;;;;;2.03;1.83;;;29.70;48.20;;;;;;5027889;28;20569;-87
2023/07/14 13:08:19;;;;;;;3.00;1.80;;;29.70;48.20;;;;;;5036460;28;20215;-87